Time;durP1;ratioP1;P1;durP2;ratioP2;P2;SDS_P1;SDS_P2;PMS_P1;PMS_P2;Temp;Humidity;BMP_temperature;BMP_pressure;BME280_temperature;BME280_humidity;BME280_pressure;Samples;Min_cycle;Max_cycle;Signal;HPM_P1;HPM_P2
2022/11/30 00:00:00;;;;;;;71.23;12.13;;;7.40;99.90;;;;;;4201446;28;20186;-94
2022/11/30 00:02:02;;;;;;;58.77;12.00;;;7.30;99.90;;;;;;4218175;28;20637;-94
2022/11/30 00:04:04;;;;;;;114.60;13.07;;;7.20;99.90;;;;;;4221266;28;20228;-92
2022/11/30 00:06:07;;;;;;;46.30;12.13;;;7.20;99.90;;;;;;4186633;28;20175;-93
2022/11/30 00:08:08;;;;;;;44.60;11.83;;;7.20;99.90;;;;;;4201220;28;20262;-93
2022/11/30 00:10:09;;;;;;;49.10;12.07;;;7.30;99.90;;;;;;4204400;28;20279;-92
2022/11/30 00:12:10;;;;;;;110.37;12.70;;;7.40;99.90;;;;;;4202945;28;20209;-92
2022/11/30 00:14:11;;;;;;;67.10;11.87;;;7.40;99.90;;;;;;4203038;28;20191;-92
2022/11/30 00:16:15;;;;;;;81.47;12.77;;;7.20;99.90;;;;;;4199611;28;20220;-92
2022/11/30 00:18:19;;;;;;;92.17;12.60;;;7.30;99.90;;;;;;4222113;28;20255;-94
2022/11/30 00:20:19;;;;;;;149.40;14.40;;;7.30;99.90;;;;;;4199522;28;20571;-93
2022/11/30 00:22:22;;;;;;;82.30;13.50;;;7.30;99.90;;;;;;4218417;28;20180;-93
2022/11/30 00:24:24;;;;;;;72.07;12.63;;;7.40;99.90;;;;;;4202570;28;20190;-93
2022/11/30 00:26:24;;;;;;;36.87;13.43;;;7.50;99.90;;;;;;4200165;28;20570;-92
2022/11/30 00:28:25;;;;;;;76.07;13.23;;;7.50;99.90;;;;;;4204519;28;20182;-93
2022/11/30 00:30:29;;;;;;;80.20;13.32;;;7.60;99.90;;;;;;4206068;28;20171;-92
2022/11/30 00:32:32;;;;;;;55.30;12.05;;;7.50;99.90;;;;;;4202810;28;20193;-94
2022/11/30 00:34:33;;;;;;;42.70;12.80;;;7.60;99.90;;;;;;4222252;28;20182;-92
2022/11/30 00:36:36;;;;;;;62.40;13.63;;;7.50;99.90;;;;;;4220226;28;20743;-91
2022/11/30 00:38:37;;;;;;;58.20;13.70;;;7.60;99.90;;;;;;4190107;28;20180;-91
2022/11/30 00:40:39;;;;;;;44.10;13.17;;;7.60;99.90;;;;;;4205106;28;20206;-92
2022/11/30 00:42:41;;;;;;;40.88;12.95;;;7.50;99.90;;;;;;4206257;28;20167;-92
2022/11/30 00:44:41;;;;;;;54.30;13.57;;;7.60;99.90;;;;;;4205065;28;20199;-94
2022/11/30 00:46:42;;;;;;;47.97;12.97;;;7.50;99.90;;;;;;4204703;28;20200;-92
2022/11/30 00:48:43;;;;;;;44.50;13.55;;;7.60;99.90;;;;;;4201563;28;20178;-91
2022/11/30 00:50:44;;;;;;;65.93;14.73;;;7.50;99.90;;;;;;4223005;28;20239;-93
2022/11/30 00:52:45;;;;;;;52.92;14.48;;;7.40;99.90;;;;;;4220624;28;20175;-92
2022/11/30 00:54:46;;;;;;;53.85;13.85;;;7.50;99.90;;;;;;4205989;28;20217;-94
2022/11/30 00:56:49;;;;;;;37.97;15.00;;;7.40;99.90;;;;;;4203541;28;20182;-93
2022/11/30 00:58:51;;;;;;;40.92;14.20;;;7.50;99.90;;;;;;4221900;28;20170;-92
2022/11/30 01:00:53;;;;;;;44.05;15.07;;;7.50;99.90;;;;;;4202447;28;20207;-92
2022/11/30 01:02:55;;;;;;;59.58;15.98;;;7.50;99.90;;;;;;4206260;28;20182;-92
2022/11/30 01:04:56;;;;;;;53.90;16.30;;;7.70;99.90;;;;;;4203945;28;20201;-94
2022/11/30 01:06:57;;;;;;;45.37;15.00;;;7.70;99.90;;;;;;4203046;28;20163;-94
2022/11/30 01:08:58;;;;;;;49.17;15.77;;;7.70;99.90;;;;;;4203111;28;20270;-92
2022/11/30 01:11:10;;;;;;;48.10;16.15;;;7.60;99.90;;;;;;4205369;28;20167;-94
2022/11/30 01:13:12;;;;;;;42.60;15.18;;;7.50;99.90;;;;;;4203697;28;20229;-93
2022/11/30 01:15:14;;;;;;;36.07;15.50;;;7.50;99.90;;;;;;4205090;28;20281;-92
2022/11/30 01:17:16;;;;;;;34.10;15.43;;;7.40;99.90;;;;;;4203853;28;20175;-92
2022/11/30 01:19:17;;;;;;;35.92;15.85;;;7.40;99.90;;;;;;4204163;28;20219;-94
2022/11/30 01:21:23;;;;;;;34.43;15.20;;;7.50;99.90;;;;;;4203121;28;20292;-91
2022/11/30 01:23:24;;;;;;;39.07;15.60;;;7.40;99.90;;;;;;4206346;28;20235;-94
2022/11/30 01:25:25;;;;;;;33.00;14.73;;;7.40;99.90;;;;;;4188585;28;20691;-92
2022/11/30 01:27:34;;;;;;;31.93;14.83;;;7.50;99.90;;;;;;4202009;28;20210;-90
2022/11/30 01:29:36;;;;;;;35.03;15.03;;;7.50;99.90;;;;;;4207847;28;20179;-93
2022/11/30 01:31:45;;;;;;;36.23;14.70;;;7.50;99.90;;;;;;4223961;28;20283;-92
2022/11/30 01:33:54;;;;;;;35.33;14.97;;;7.60;99.90;;;;;;4222161;28;20261;-94
2022/11/30 01:36:04;;;;;;;34.00;14.60;;;7.50;99.90;;;;;;4221031;28;20188;-92
2022/11/30 01:38:05;;;;;;;37.03;14.65;;;7.50;99.90;;;;;;4204015;28;20221;-92
2022/11/30 01:40:07;;;;;;;38.80;14.90;;;7.50;99.90;;;;;;4214259;28;20197;-90
2022/11/30 01:42:17;;;;;;;32.57;14.87;;;7.50;99.90;;;;;;4233363;28;20201;-94
2022/11/30 01:44:25;;;;;;;47.13;15.90;;;7.60;99.90;;;;;;4205506;28;20214;-92
2022/11/30 01:46:38;;;;;;;39.63;15.13;;;7.40;99.90;;;;;;4202584;28;20257;-92
2022/11/30 01:48:39;;;;;;;32.53;15.13;;;7.40;99.90;;;;;;4201643;28;20554;-93
2022/11/30 01:50:42;;;;;;;40.22;16.55;;;7.50;99.90;;;;;;4202694;28;20202;-92
2022/11/30 01:52:49;;;;;;;43.07;15.63;;;7.50;99.90;;;;;;4203703;28;20570;-92
2022/11/30 01:55:02;;;;;;;35.50;16.30;;;7.50;99.90;;;;;;4206971;28;20228;-93
2022/11/30 01:57:13;;;;;;;35.17;15.47;;;7.50;99.90;;;;;;4204767;28;20210;-94
2022/11/30 01:59:18;;;;;;;35.40;15.20;;;7.60;99.90;;;;;;4204638;28;20171;-92
2022/11/30 02:01:19;;;;;;;32.70;15.73;;;7.50;99.90;;;;;;4222261;28;20209;-92
2022/11/30 02:03:51;;;;;;;35.63;14.80;;;7.50;99.90;;;;;;4204293;28;20197;-92
2022/11/30 02:05:53;;;;;;;32.90;14.60;;;7.50;99.90;;;;;;4223343;28;20194;-92
2022/11/30 02:07:55;;;;;;;29.83;14.45;;;7.70;99.90;;;;;;4205640;28;20250;-91
2022/11/30 02:09:56;;;;;;;31.27;14.35;;;7.60;99.90;;;;;;4190862;28;20175;-91
2022/11/30 02:12:00;;;;;;;35.47;15.18;;;7.70;99.90;;;;;;4201266;28;20194;-92
2022/11/30 02:14:36;;;;;;;29.42;14.70;;;7.60;99.90;;;;;;4222634;28;20198;-94
2022/11/30 02:17:01;;;;;;;29.10;15.00;;;7.70;99.90;;;;;;4207569;28;20178;-92
2022/11/30 02:19:24;;;;;;;33.90;14.48;;;7.70;99.90;;;;;;4202339;28;20179;-92
2022/11/30 02:21:33;;;;;;;30.37;14.43;;;7.70;99.90;;;;;;4206248;28;20578;-92
2022/11/30 02:24:01;;;;;;;27.88;13.73;;;7.60;99.90;;;;;;4203971;28;20162;-93
2022/11/30 02:26:34;;;;;;;30.47;13.97;;;7.70;99.90;;;;;;4186812;28;20183;-92
2022/11/30 02:29:12;;;;;;;29.33;14.25;;;7.80;99.90;;;;;;4217701;28;20638;-92
2022/11/30 02:31:23;;;;;;;30.17;14.03;;;7.90;99.90;;;;;;4172765;28;20331;-91
2022/11/30 02:33:30;;;;;;;32.67;15.35;;;7.90;99.90;;;;;;4203338;28;20601;-93
2022/11/30 02:35:34;;;;;;;30.77;14.57;;;7.90;99.90;;;;;;4206361;28;20196;-92
2022/11/30 02:37:38;;;;;;;35.93;14.43;;;7.90;99.90;;;;;;4219055;28;20658;-93
2022/11/30 02:39:42;;;;;;;29.50;14.10;;;7.80;99.90;;;;;;4208211;28;20171;-95
2022/11/30 02:41:43;;;;;;;29.65;14.18;;;7.70;99.90;;;;;;4207099;28;20238;-93
2022/11/30 02:43:45;;;;;;;24.90;13.13;;;7.80;99.90;;;;;;4208838;28;20233;-92
2022/11/30 02:46:09;;;;;;;28.67;14.17;;;7.70;99.90;;;;;;4220933;28;20170;-92
2022/11/30 02:48:22;;;;;;;29.73;14.05;;;7.70;99.90;;;;;;4224659;28;20177;-92
2022/11/30 02:50:28;;;;;;;29.58;13.02;;;7.90;99.90;;;;;;4225061;28;20191;-93
2022/11/30 02:52:31;;;;;;;30.30;13.60;;;8.00;99.90;;;;;;4202054;28;20202;-93
2022/11/30 02:54:34;;;;;;;26.55;13.55;;;7.90;99.90;;;;;;4223000;28;20186;-94
2022/11/30 02:56:40;;;;;;;28.35;13.30;;;7.90;99.90;;;;;;4205616;28;20174;-93
2022/11/30 02:58:41;;;;;;;26.98;12.73;;;8.00;99.90;;;;;;4224800;28;20169;-92
2022/11/30 03:00:42;;;;;;;24.25;12.90;;;7.90;99.90;;;;;;4205863;28;20214;-94
2022/11/30 03:02:48;;;;;;;27.37;13.63;;;7.80;99.90;;;;;;4207380;28;20567;-93
2022/11/30 03:04:51;;;;;;;29.58;13.40;;;7.80;99.90;;;;;;4224191;28;20194;-94
2022/11/30 03:06:52;;;;;;;29.05;13.38;;;7.80;99.90;;;;;;4202268;28;20185;-91
2022/11/30 03:08:56;;;;;;;28.13;13.55;;;7.70;99.90;;;;;;4203931;28;20179;-93
2022/11/30 03:11:02;;;;;;;30.40;14.10;;;7.80;99.90;;;;;;4222411;28;20178;-92
2022/11/30 03:13:03;;;;;;;30.55;13.98;;;7.90;99.90;;;;;;4202529;28;20253;-91
2022/11/30 03:15:06;;;;;;;27.97;13.97;;;7.80;99.90;;;;;;4220691;28;20205;-92
2022/11/30 03:17:08;;;;;;;29.60;14.13;;;7.70;99.90;;;;;;4202737;28;20183;-93
2022/11/30 03:19:37;;;;;;;29.57;14.70;;;7.70;99.90;;;;;;4223185;28;20154;-92
2022/11/30 03:21:45;;;;;;;29.75;14.05;;;7.70;99.90;;;;;;4137754;28;20644;-93
2022/11/30 03:23:48;;;;;;;28.90;12.93;;;7.80;99.90;;;;;;4139315;28;20185;-92
2022/11/30 03:25:50;;;;;;;29.50;14.27;;;7.70;99.90;;;;;;4172000;28;20179;-94
2022/11/30 03:27:51;;;;;;;37.78;17.02;;;7.70;99.90;;;;;;4172395;28;20237;-94
2022/11/30 03:29:59;;;;;;;32.67;16.35;;;7.80;99.90;;;;;;4219804;28;20182;-92
2022/11/30 03:32:02;;;;;;;30.00;15.53;;;7.80;99.90;;;;;;4204361;28;20171;-93
2022/11/30 03:34:07;;;;;;;33.60;14.50;;;7.80;99.90;;;;;;4206223;28;20199;-92
2022/11/30 03:36:11;;;;;;;34.25;15.77;;;7.80;99.90;;;;;;4223040;28;20158;-94
2022/11/30 03:38:18;;;;;;;32.53;14.87;;;7.80;99.90;;;;;;4207398;28;20183;-93
2022/11/30 03:40:21;;;;;;;30.37;14.37;;;7.80;99.90;;;;;;4205447;28;20225;-93
2022/11/30 03:42:25;;;;;;;34.27;14.83;;;7.70;99.90;;;;;;4221513;28;20182;-92
2022/11/30 03:44:34;;;;;;;31.77;14.73;;;7.80;99.90;;;;;;4205211;28;20193;-92
2022/11/30 03:46:38;;;;;;;31.10;15.43;;;7.80;99.90;;;;;;4222322;28;20193;-95
2022/11/30 03:48:42;;;;;;;30.23;15.02;;;7.90;99.90;;;;;;4221663;28;20174;-94
2022/11/30 03:50:48;;;;;;;29.67;14.27;;;7.90;99.90;;;;;;4221810;28;20170;-95
2022/11/30 03:52:49;;;;;;;32.77;14.53;;;8.00;99.90;;;;;;4204423;28;20212;-93
2022/11/30 03:54:54;;;;;;;33.15;15.02;;;8.00;99.90;;;;;;4220339;28;20244;-92
2022/11/30 03:56:55;;;;;;;29.05;13.63;;;8.00;99.90;;;;;;4217720;28;20263;-95
2022/11/30 03:58:58;;;;;;;30.00;14.00;;;8.00;99.90;;;;;;4205889;28;20229;-92
2022/11/30 04:01:11;;;;;;;30.88;14.98;;;7.90;99.90;;;;;;4222563;28;20202;-94
2022/11/30 04:03:12;;;;;;;30.53;15.27;;;7.90;99.90;;;;;;4205396;28;20155;-93
2022/11/30 04:05:13;;;;;;;30.25;13.57;;;7.90;99.90;;;;;;4210740;28;20285;-92
2022/11/30 04:07:15;;;;;;;30.80;13.47;;;7.90;99.90;;;;;;4209823;28;20225;-93
2022/11/30 04:09:16;;;;;;;34.03;13.38;;;7.90;99.90;;;;;;4208437;28;20187;-91
2022/11/30 04:11:17;;;;;;;27.93;13.20;;;7.90;99.90;;;;;;4201443;28;20516;-95
2022/11/30 04:13:19;;;;;;;36.00;14.23;;;7.80;99.90;;;;;;4200676;28;20201;-94
2022/11/30 04:15:19;;;;;;;35.17;15.00;;;7.70;99.90;;;;;;4200256;28;20190;-94
2022/11/30 04:17:20;;;;;;;30.07;14.57;;;7.70;99.90;;;;;;4217615;28;20201;-94
2022/11/30 04:19:21;;;;;;;33.37;14.67;;;7.60;99.90;;;;;;4201015;28;20170;-94
2022/11/30 04:21:22;;;;;;;36.37;16.60;;;7.60;99.90;;;;;;4200691;28;20660;-94
2022/11/30 04:23:24;;;;;;;31.23;16.20;;;7.60;99.90;;;;;;4200795;28;20171;-94
2022/11/30 04:25:25;;;;;;;40.27;20.53;;;7.60;99.90;;;;;;4200516;28;20286;-93
2022/11/30 04:27:28;;;;;;;31.27;14.60;;;7.50;99.90;;;;;;4200301;28;20175;-94
2022/11/30 04:29:28;;;;;;;35.97;15.27;;;7.50;99.90;;;;;;4200243;28;20178;-94
2022/11/30 04:31:29;;;;;;;33.63;15.37;;;7.50;99.90;;;;;;4200307;28;20269;-94
2022/11/30 04:33:30;;;;;;;31.03;14.67;;;7.60;99.90;;;;;;4200232;28;20171;-94
2022/11/30 04:35:31;;;;;;;34.23;14.43;;;7.70;99.90;;;;;;4200590;28;20178;-93
2022/11/30 04:37:32;;;;;;;33.17;14.97;;;7.70;99.90;;;;;;4200225;28;20205;-94
2022/11/30 04:39:34;;;;;;;33.83;14.73;;;7.60;99.90;;;;;;4200352;28;20155;-94
2022/11/30 04:41:35;;;;;;;36.43;15.87;;;7.70;99.90;;;;;;4200026;28;20248;-94
2022/11/30 04:43:36;;;;;;;32.03;14.77;;;7.70;99.90;;;;;;4200045;28;20163;-95
2022/11/30 04:45:37;;;;;;;34.00;14.67;;;7.70;99.90;;;;;;4200406;28;20217;-95
2022/11/30 04:47:38;;;;;;;33.75;14.55;;;7.80;99.90;;;;;;4200373;28;20171;-94
2022/11/30 04:49:39;;;;;;;33.13;14.87;;;7.80;99.90;;;;;;4199790;28;20167;-94
2022/11/30 04:51:40;;;;;;;33.20;15.23;;;7.70;99.90;;;;;;4216871;28;20209;-94
2022/11/30 04:53:40;;;;;;;37.03;15.60;;;7.70;99.90;;;;;;4216791;28;20171;-94
2022/11/30 04:55:41;;;;;;;37.30;16.40;;;7.70;99.90;;;;;;4200174;28;20178;-94
2022/11/30 04:57:42;;;;;;;68.57;16.73;;;7.70;99.90;;;;;;4200076;28;20175;-93
2022/11/30 04:59:43;;;;;;;42.37;16.07;;;7.80;99.90;;;;;;4200411;28;20241;-94
2022/11/30 05:01:43;;;;;;;50.57;16.90;;;7.80;99.90;;;;;;4200059;28;20206;-94
2022/11/30 05:03:44;;;;;;;52.73;18.73;;;7.80;99.90;;;;;;4199962;28;20185;-96
2022/11/30 05:05:45;;;;;;;57.88;17.75;;;7.70;99.90;;;;;;4216614;28;20178;-93
2022/11/30 05:07:49;;;;;;;80.57;17.50;;;7.70;99.90;;;;;;4199883;28;20701;-95
2022/11/30 05:09:50;;;;;;;73.07;17.40;;;7.70;99.90;;;;;;4199725;28;20175;-93
2022/11/30 05:11:51;;;;;;;104.80;18.87;;;7.80;99.90;;;;;;4216454;28;20588;-95
2022/11/30 05:13:51;;;;;;;84.67;18.60;;;7.70;99.90;;;;;;4199393;28;20194;-93
2022/11/30 05:15:52;;;;;;;60.70;16.70;;;7.80;99.90;;;;;;4199823;28;20784;-93
2022/11/30 05:17:57;;;;;;;61.70;17.80;;;7.70;99.90;;;;;;4199741;28;20167;-94
2022/11/30 05:19:58;;;;;;;70.70;18.07;;;7.70;99.90;;;;;;4216323;28;20715;-95
2022/11/30 05:21:59;;;;;;;59.67;16.83;;;7.60;99.90;;;;;;4199399;28;20194;-93
2022/11/30 05:23:59;;;;;;;77.63;20.73;;;7.60;99.90;;;;;;4199628;28;20198;-94
2022/11/30 05:26:01;;;;;;;53.23;18.83;;;7.70;99.90;;;;;;4199788;28;20178;-93
2022/11/30 05:28:02;;;;;;;55.83;18.70;;;7.90;99.90;;;;;;4199534;28;20174;-93
2022/11/30 05:30:04;;;;;;;59.17;21.33;;;7.60;99.90;;;;;;4199745;28;20266;-94
2022/11/30 05:32:05;;;;;;;55.70;21.93;;;7.60;99.90;;;;;;4199489;28;20547;-95
2022/11/30 05:34:05;;;;;;;46.00;17.93;;;7.60;99.90;;;;;;4215964;28;20197;-94
2022/11/30 05:36:07;;;;;;;45.83;19.17;;;7.60;99.90;;;;;;4199381;28;20177;-93
2022/11/30 05:38:07;;;;;;;40.63;18.23;;;7.40;99.90;;;;;;4216099;28;20174;-93
2022/11/30 05:40:09;;;;;;;42.77;16.40;;;7.40;99.90;;;;;;4199553;28;20669;-95
2022/11/30 05:42:09;;;;;;;52.23;15.80;;;7.40;99.90;;;;;;4199228;28;20182;-95
2022/11/30 05:44:10;;;;;;;92.43;15.97;;;7.30;99.90;;;;;;4199261;28;20566;-94
2022/11/30 05:46:11;;;;;;;64.90;16.60;;;7.30;99.90;;;;;;4199371;28;20182;-93
2022/11/30 05:48:12;;;;;;;119.57;15.53;;;7.40;99.90;;;;;;4198941;28;20219;-94
2022/11/30 05:50:13;;;;;;;114.53;13.30;;;7.50;99.90;;;;;;4199163;28;20210;-94
2022/11/30 05:52:14;;;;;;;194.80;14.50;;;7.30;99.90;;;;;;4198970;28;20702;-93
2022/11/30 05:54:14;;;;;;;161.00;15.47;;;7.40;99.90;;;;;;4199396;28;20193;-94
2022/11/30 05:56:18;;;;;;;270.67;15.07;;;7.40;99.90;;;;;;4198899;28;20175;-93
2022/11/30 05:58:20;;;;;;;181.33;14.07;;;7.40;99.90;;;;;;4215888;28;20216;-94
2022/11/30 06:00:21;;;;;;;165.57;14.20;;;7.50;99.90;;;;;;4199058;28;20612;-93
2022/11/30 06:02:21;;;;;;;169.03;14.00;;;7.40;99.90;;;;;;4199172;28;20202;-95
2022/11/30 06:04:22;;;;;;;315.83;15.20;;;7.40;99.90;;;;;;4198923;28;20229;-94
2022/11/30 06:06:23;;;;;;;304.53;15.37;;;7.50;99.90;;;;;;4199026;28;20174;-94
2022/11/30 06:08:24;;;;;;;201.67;14.63;;;7.50;99.90;;;;;;4199060;28;20178;-94
2022/11/30 06:10:26;;;;;;;219.77;15.17;;;7.60;99.90;;;;;;4198683;28;20213;-93
2022/11/30 06:12:26;;;;;;;187.98;14.10;;;7.60;99.90;;;;;;4199959;28;20242;-95
2022/11/30 06:14:29;;;;;;;215.30;14.93;;;7.50;99.90;;;;;;4218319;28;20190;-94
2022/11/30 06:16:30;;;;;;;217.77;15.93;;;7.60;99.90;;;;;;4200743;28;20638;-95
2022/11/30 06:18:33;;;;;;;274.92;15.00;;;7.70;99.90;;;;;;4201444;28;20175;-94
2022/11/30 06:20:34;;;;;;;205.87;14.20;;;7.70;99.90;;;;;;4201773;28;20614;-95
2022/11/30 06:22:35;;;;;;;224.60;15.03;;;7.50;99.90;;;;;;4217144;28;20645;-93
2022/11/30 06:24:36;;;;;;;165.90;14.97;;;7.20;99.90;;;;;;4199702;28;20195;-95
2022/11/30 06:26:37;;;;;;;201.50;15.30;;;7.00;99.90;;;;;;4218359;28;20174;-92
2022/11/30 06:28:39;;;;;;;264.63;16.87;;;6.80;99.90;;;;;;4200229;28;20213;-93
2022/11/30 06:30:39;;;;;;;313.60;17.10;;;7.00;99.90;;;;;;4202074;28;20175;-90
2022/11/30 06:32:47;;;;;;;280.13;17.60;;;7.10;99.90;;;;;;4201079;28;20186;-96
2022/11/30 06:34:48;;;;;;;232.50;17.53;;;7.30;99.90;;;;;;4218141;28;20190;-95
2022/11/30 06:36:49;;;;;;;242.77;16.77;;;7.90;99.90;;;;;;4220267;28;20253;-93
2022/11/30 06:38:50;;;;;;;259.10;18.77;;;8.20;99.90;;;;;;4207852;28;20166;-94
2022/11/30 06:40:52;;;;;;;154.43;16.63;;;8.10;99.90;;;;;;4219146;28;20218;-94
2022/11/30 06:42:54;;;;;;;130.73;16.80;;;7.80;99.90;;;;;;4205877;28;20167;-95
2022/11/30 06:44:55;;;;;;;190.40;16.43;;;7.60;99.90;;;;;;4204541;28;20218;-93
2022/11/30 06:46:56;;;;;;;161.30;17.37;;;7.50;99.90;;;;;;4202926;28;20174;-95
2022/11/30 06:48:57;;;;;;;191.97;17.77;;;7.40;99.90;;;;;;4202188;28;20272;-93
2022/11/30 06:51:12;;;;;;;120.83;17.53;;;7.30;99.90;;;;;;4204509;28;20174;-93
2022/11/30 06:53:13;;;;;;;189.40;19.23;;;7.30;99.90;;;;;;4203429;28;20246;-94
2022/11/30 06:55:14;;;;;;;173.23;16.80;;;7.40;99.90;;;;;;4202744;28;20187;-94
2022/11/30 06:57:16;;;;;;;50.57;15.10;;;7.40;99.90;;;;;;4203092;28;20183;-96
2022/11/30 06:59:17;;;;;;;184.00;17.03;;;7.30;99.90;;;;;;4217487;28;20162;-94
2022/11/30 07:01:18;;;;;;;65.73;15.47;;;7.30;99.90;;;;;;4202063;28;20293;-93
2022/11/30 07:03:20;;;;;;;51.57;13.47;;;7.10;99.90;;;;;;4201551;28;20206;-93
2022/11/30 07:05:21;;;;;;;127.60;14.20;;;7.20;99.90;;;;;;4202167;28;20199;-94
2022/11/30 07:07:22;;;;;;;141.30;14.63;;;7.60;99.90;;;;;;4201411;28;20201;-96
2022/11/30 07:09:25;;;;;;;74.50;15.43;;;7.70;99.90;;;;;;4203404;28;20167;-92
2022/11/30 07:11:30;;;;;;;103.57;15.97;;;7.70;99.90;;;;;;4201757;28;20179;-95
2022/11/30 07:13:31;;;;;;;102.30;16.63;;;7.60;99.90;;;;;;4202994;28;20224;-94
2022/11/30 07:15:35;;;;;;;67.93;15.00;;;7.70;99.90;;;;;;4201513;28;20175;-95
2022/11/30 07:17:36;;;;;;;85.60;16.63;;;7.60;99.90;;;;;;4186860;28;20712;-94
2022/11/30 07:19:39;;;;;;;63.50;14.87;;;7.40;99.90;;;;;;4202044;28;20163;-94
2022/11/30 07:21:43;;;;;;;54.30;13.87;;;7.20;99.90;;;;;;4203400;28;20699;-94
2022/11/30 07:26:09;;;;;;;95.33;15.03;;;7.60;99.90;;;;;;4218194;28;20204;-94
2022/11/30 07:28:09;;;;;;;97.47;15.90;;;7.80;99.90;;;;;;4201843;28;20210;-94
2022/11/30 07:30:11;;;;;;;112.10;16.17;;;7.60;99.90;;;;;;4201608;28;20269;-93
2022/11/30 07:32:14;;;;;;;71.67;13.90;;;7.50;99.90;;;;;;4202030;28;20171;-94
2022/11/30 07:34:18;;;;;;;215.37;16.80;;;7.50;99.90;;;;;;4201414;28;20273;-95
2022/11/30 07:36:24;;;;;;;264.67;17.27;;;7.40;99.90;;;;;;4201775;28;20171;-95
2022/11/30 07:38:25;;;;;;;104.63;14.93;;;7.10;99.90;;;;;;4201322;28;20178;-93
2022/11/30 07:40:26;;;;;;;247.37;19.97;;;6.90;99.90;;;;;;4202603;28;20216;-93
2022/11/30 07:42:27;;;;;;;411.70;20.13;;;7.10;99.90;;;;;;4218245;28;20566;-94
2022/11/30 07:44:28;;;;;;;431.70;19.73;;;7.10;99.90;;;;;;4203218;28;20234;-95
2022/11/30 07:46:30;;;;;;;331.03;17.40;;;7.10;99.90;;;;;;4201087;28;20170;-92
2022/11/30 07:48:41;;;;;;;146.17;17.63;;;7.20;99.90;;;;;;4202565;28;20167;-94
2022/11/30 07:50:42;;;;;;;313.47;17.20;;;7.30;99.90;;;;;;4201004;28;20269;-93
2022/11/30 07:52:43;;;;;;;374.90;17.53;;;7.60;99.90;;;;;;4218461;28;20707;-94
2022/11/30 07:54:44;;;;;;;273.87;17.43;;;8.20;99.90;;;;;;4200424;28;20215;-94
2022/11/30 07:56:45;;;;;;;398.97;19.63;;;8.30;99.90;;;;;;4200292;28;20265;-93
2022/11/30 07:58:47;;;;;;;469.53;21.37;;;8.40;99.90;;;;;;4200970;28;20251;-95
2022/11/30 08:00:48;;;;;;;364.07;18.57;;;8.30;99.90;;;;;;4199758;28;20261;-94
2022/11/30 08:02:51;;;;;;;326.33;20.53;;;7.80;99.90;;;;;;4201586;28;20582;-96
2022/11/30 08:05:01;;;;;;;281.47;19.13;;;7.40;99.90;;;;;;4218385;28;20257;-94
2022/11/30 08:07:10;;;;;;;497.90;23.53;;;7.10;99.90;;;;;;4202815;28;20170;-95
2022/11/30 08:09:12;;;;;;;366.97;17.93;;;6.90;99.90;;;;;;4201599;28;20197;-94
2022/11/30 08:11:24;;;;;;;474.60;21.27;;;6.90;99.90;;;;;;4201529;28;20163;-94
2022/11/30 08:13:28;;;;;;;500.93;21.83;;;6.80;99.90;;;;;;4200623;28;20241;-94
2022/11/30 08:15:33;;;;;;;546.10;26.43;;;7.00;99.90;;;;;;4201415;28;20240;-93
2022/11/30 08:17:34;;;;;;;545.17;24.40;;;7.10;99.90;;;;;;4201206;28;20187;-93
2022/11/30 08:19:37;;;;;;;454.70;24.10;;;7.10;99.90;;;;;;4201842;28;20179;-94
2022/11/30 08:21:46;;;;;;;168.90;17.07;;;7.20;99.90;;;;;;4218211;28;20198;-95
2022/11/30 08:23:51;;;;;;;423.80;23.43;;;7.20;99.90;;;;;;4201327;28;20266;-95
2022/11/30 08:25:52;;;;;;;363.83;21.53;;;7.20;99.90;;;;;;4201773;28;20221;-92
2022/11/30 08:28:00;;;;;;;450.17;23.77;;;7.10;99.90;;;;;;4201504;28;20186;-92
2022/11/30 08:30:01;;;;;;;558.70;26.73;;;7.00;99.90;;;;;;4190916;28;20167;-95
2022/11/30 08:32:14;;;;;;;435.13;22.47;;;7.10;99.90;;;;;;4225276;28;20193;-94
2022/11/30 08:34:31;;;;;;;245.03;19.27;;;7.10;99.90;;;;;;4204098;28;20227;-94
2022/11/30 08:36:35;;;;;;;275.93;52.57;;;7.00;99.90;;;;;;4204531;28;20183;-93
2022/11/30 08:38:45;;;;;;;336.73;21.33;;;7.10;99.90;;;;;;4218544;28;20226;-94
2022/11/30 08:41:02;;;;;;;285.10;22.80;;;7.30;99.90;;;;;;4203800;28;20222;-93
2022/11/30 08:43:13;;;;;;;496.90;27.17;;;7.50;99.90;;;;;;4225107;28;20185;-95
2022/11/30 08:45:16;;;;;;;621.37;29.67;;;7.50;99.90;;;;;;4208224;28;20222;-94
2022/11/30 08:47:17;;;;;;;557.30;28.90;;;7.40;99.90;;;;;;4206897;28;20175;-92
2022/11/30 08:49:22;;;;;;;455.97;27.10;;;7.40;99.90;;;;;;4209934;28;20209;-96
2022/11/30 08:51:33;;;;;;;325.37;22.67;;;7.40;99.90;;;;;;4213497;28;20170;-94
2022/11/30 08:53:53;;;;;;;599.50;30.37;;;7.40;99.90;;;;;;4230877;28;20174;-94
2022/11/30 08:56:05;;;;;;;290.60;21.35;;;7.30;99.90;;;;;;4215680;28;20266;-93
2022/11/30 08:58:14;;;;;;;464.60;25.13;;;7.40;99.90;;;;;;4207705;28;20182;-95
2022/11/30 09:00:24;;;;;;;347.53;25.83;;;7.80;99.90;;;;;;4207777;28;20190;-94
2022/11/30 09:02:39;;;;;;;513.60;28.13;;;7.60;99.90;;;;;;4229252;28;20248;-95
2022/11/30 09:04:41;;;;;;;492.73;25.70;;;7.60;99.90;;;;;;4194540;28;20218;-93
2022/11/30 09:06:42;;;;;;;510.93;25.77;;;7.60;99.90;;;;;;4209414;28;20190;-93
2022/11/30 09:08:45;;;;;;;481.13;25.67;;;8.20;99.90;;;;;;4206658;28;20167;-94
2022/11/30 09:10:47;;;;;;;413.67;24.93;;;8.50;99.90;;;;;;4209093;28;20631;-94
2022/11/30 09:12:58;;;;;;;351.23;23.57;;;8.30;99.90;;;;;;4227342;28;20173;-94
2022/11/30 09:15:09;;;;;;;418.73;25.20;;;8.00;99.90;;;;;;4224762;28;20193;-93
2022/11/30 09:17:22;;;;;;;199.63;21.90;;;7.70;99.90;;;;;;4209208;28;20204;-96
2022/11/30 09:19:24;;;;;;;431.93;25.53;;;7.60;99.90;;;;;;4206557;28;20250;-94
2022/11/30 09:21:58;;;;;;;135.03;21.20;;;7.70;99.90;;;;;;4222641;28;20202;-94
2022/11/30 09:24:16;;;;;;;161.93;22.00;;;7.90;99.90;;;;;;4220668;28;20202;-93
2022/11/30 09:26:47;;;;;;;244.57;23.90;;;7.70;99.90;;;;;;4226225;28;20166;-95
2022/11/30 09:28:54;;;;;;;273.77;24.57;;;7.80;99.90;;;;;;4205532;28;20182;-93
2022/11/30 09:31:15;;;;;;;157.37;23.67;;;8.50;99.90;;;;;;4224533;28;20170;-94
2022/11/30 09:33:43;;;;;;;323.70;24.93;;;8.40;99.90;;;;;;4236817;28;20189;-93
2022/11/30 09:36:20;;;;;;;245.40;25.77;;;8.10;99.90;;;;;;4229283;28;20178;-95
2022/11/30 09:38:41;;;;;;;262.23;23.27;;;7.80;99.90;;;;;;4225925;28;20173;-94
2022/11/30 09:40:50;;;;;;;472.20;26.70;;;7.70;99.90;;;;;;4210774;28;20194;-93
2022/11/30 09:43:04;;;;;;;184.30;22.33;;;8.10;99.90;;;;;;4226193;28;20243;-94
2022/11/30 09:45:41;;;;;;;283.03;24.40;;;7.90;99.90;;;;;;4226026;28;20198;-93
2022/11/30 09:47:57;;;;;;;178.33;23.13;;;8.00;99.90;;;;;;4202742;28;20174;-93
2022/11/30 09:50:23;;;;;;;343.90;26.57;;;7.80;99.90;;;;;;4214477;28;20179;-95
2022/11/30 09:52:47;;;;;;;133.00;24.53;;;8.10;99.90;;;;;;4225962;28;20209;-93
2022/11/30 09:54:51;;;;;;;189.20;23.20;;;8.10;99.90;;;;;;4228902;28;20253;-94
2022/11/30 09:57:22;;;;;;;208.23;23.87;;;8.20;99.90;;;;;;4209362;28;20187;-96
2022/11/30 09:59:36;;;;;;;231.93;23.03;;;7.80;99.90;;;;;;4229879;28;20158;-94
2022/11/30 10:01:43;;;;;;;340.10;25.00;;;7.50;99.90;;;;;;4227675;28;20201;-94
2022/11/30 10:04:00;;;;;;;316.73;24.83;;;7.40;99.90;;;;;;4226217;28;20161;-93
2022/11/30 10:06:24;;;;;;;294.47;23.43;;;7.70;99.90;;;;;;4206445;28;20236;-94
2022/11/30 10:08:57;;;;;;;316.20;24.97;;;8.00;99.90;;;;;;4226054;28;20180;-94
2022/11/30 10:11:37;;;;;;;270.53;29.23;;;8.10;99.90;;;;;;4230763;28;20201;-94
2022/11/30 10:14:23;;;;;;;279.10;28.80;;;8.40;99.90;;;;;;4209346;28;20626;-95
2022/11/30 10:16:50;;;;;;;332.03;27.40;;;8.50;99.90;;;;;;4211054;28;20563;-94
2022/11/30 10:19:28;;;;;;;313.80;26.73;;;9.20;99.90;;;;;;4209339;28;20205;-94
2022/11/30 10:21:54;;;;;;;293.37;26.53;;;9.50;99.90;;;;;;4226782;28;20220;-93
2022/11/30 10:24:34;;;;;;;267.03;25.13;;;9.70;99.90;;;;;;4206093;28;20234;-95
2022/11/30 10:26:54;;;;;;;274.90;25.40;;;9.70;99.90;;;;;;4214326;28;20183;-96
2022/11/30 10:29:26;;;;;;;381.48;25.80;;;9.20;99.90;;;;;;4227988;28;20174;-94
2022/11/30 10:31:48;;;;;;;331.40;24.57;;;8.70;99.90;;;;;;4211032;28;20175;-93
2022/11/30 10:34:23;;;;;;;313.77;26.77;;;8.40;99.90;;;;;;4216260;28;20155;-95
2022/11/30 10:36:40;;;;;;;93.15;20.35;;;8.60;99.90;;;;;;4212269;28;20186;-93
2022/11/30 10:38:55;;;;;;;79.75;21.92;;;8.40;99.90;;;;;;4228358;28;20157;-95
2022/11/30 10:41:50;;;;;;;136.68;20.45;;;8.10;99.90;;;;;;4210712;28;20690;-94
2022/11/30 10:44:28;;;;;;;261.60;22.77;;;8.00;99.90;;;;;;4227059;28;20174;-94
2022/11/30 10:47:07;;;;;;;293.43;23.07;;;8.60;99.90;;;;;;4225686;28;20198;-93
2022/11/30 10:49:19;;;;;;;222.30;22.50;;;8.70;99.90;;;;;;4212453;28;20198;-95